Weather History for Galliano, LA

Change the Weather History Date:

Friday, February 28, 2014

  Actual Average (KAXO) Record (KAXO)
Temperature  
Mean Temperature 50 °F -  
Max Temperature 64 °F 61 °F 71 °F (1998)
Min Temperature 35 °F 57 °F 42 °F (2002)
Degree Days  
Heating Degree Days 16    
Moisture  
Dew Point 45 °F    
Average Humidity 77    
Maximum Humidity 99    
Minimum Humidity 55    
Precipitation  
Precipitation 0.00 in - - ()
Sea Level Pressure  
Sea Level Pressure 30.05 in    
Wind  
Wind Speed 4 mph (East)    
Max Wind Speed 14 mph    
Max Gust Speed 20 mph    
Visibility 10 miles    
Events      
Averages and records for this station are not official NWS values.
T = Trace of Precipitation, MM = Missing Value Source: NWS Daily Summary

Daily Weather History Graph

Daily Weather History Graph

Search for Another Location

Airport:

Trip Planner

Search our weather history database for the weather conditions in past years. The results will help you decide how hot, cold, wet, or windy it might be!

Date:

Astronomy

Feb. 28, 2014 Rise Set
Actual Time 6:27 AM CST 5:59 PM CST
Civil Twilight 6:03 AM CST 6:23 PM CST
Nautical Twilight 5:36 AM CST 6:51 PM CST
Astronomical Twilight 5:08 AM CST 7:18 PM CST
Moon 5:41 AM CST (2/28) 5:35 PM CST (2/28)
Length of Visible Light 12h 20m
Length of Day
11h 32m
Waning Crescent, 1% of the Moon is Illuminated
Feb 28
Waning Crescent
Mar 1
New
Mar 8
First Quarter
Mar 16
Full
Mar 23
Last Quarter

Hourly Weather History & Observations

Time (CST) Temp. Windchill Dew Point Humidity Pressure Visibility Wind Dir Wind Speed Gust Speed Precip Events Conditions
12:15 AM 37.2 °F - 36.1 °F 96% 30.05 in 10.0 mi Calm Calm - N/A   Clear
12:35 AM 36.3 °F - 34.9 °F 95% 30.04 in 10.0 mi Calm Calm - N/A   Clear
12:55 AM 37.4 °F - 36.3 °F 96% 30.04 in 10.0 mi Calm Calm - N/A   Clear
1:15 AM 37.9 °F - 36.5 °F 95% 30.04 in 10.0 mi Calm Calm - N/A   Clear
1:35 AM 37.4 °F - 36.3 °F 96% 30.03 in 10.0 mi Calm Calm - N/A   Clear
1:55 AM 38.1 °F - 36.1 °F 93% 30.03 in 10.0 mi Calm Calm - N/A   Clear
2:15 AM 37.6 °F - 36.5 °F 96% 30.03 in 10.0 mi Calm Calm - N/A   Clear
2:35 AM 37.8 °F - 36.5 °F 95% 30.03 in 10.0 mi Calm Calm - N/A   Clear
2:55 AM 37.6 °F - 36.5 °F 96% 30.03 in 10.0 mi Calm Calm - N/A   Clear
3:15 AM 37.4 °F - 36.1 °F 95% 30.03 in 10.0 mi Calm Calm - N/A   Clear
3:35 AM 37.0 °F - 35.8 °F 95% 30.03 in 10.0 mi Calm Calm - N/A   Clear
3:50 AM 36.7 °F - 35.8 °F 97% 30.03 in 10.0 mi Calm Calm - N/A   Clear
4:15 AM 36.5 °F - 35.6 °F 97% 30.03 in 10.0 mi Calm Calm - N/A   Clear
4:35 AM 36.3 °F - 35.6 °F 97% 30.03 in 10.0 mi Calm Calm - N/A   Clear
4:55 AM 35.6 °F - 35.1 °F 98% 30.03 in 10.0 mi Calm Calm - N/A   Clear
5:15 AM 35.6 °F - 35.1 °F 98% 30.03 in 10.0 mi Calm Calm - N/A   Clear
5:35 AM 36.3 °F - 35.6 °F 97% 30.04 in 10.0 mi Calm Calm - N/A   Clear
5:55 AM 36.9 °F - 36.5 °F 99% 30.05 in 10.0 mi Calm Calm - N/A   Clear
6:15 AM 36.3 °F - 36.0 °F 99% 30.05 in 10.0 mi Calm Calm - N/A   Clear
6:35 AM 36.0 °F - 35.4 °F 98% 30.06 in 10.0 mi Calm Calm - N/A   Clear
6:55 AM 36.0 °F - 35.8 °F 99% 30.07 in 10.0 mi Calm Calm - N/A   Clear
7:15 AM 37.8 °F 35.3 °F 36.9 °F 97% 30.07 in 10.0 mi ENE 3.5 mph - N/A   Clear
7:35 AM 43.5 °F 40.9 °F 40.8 °F 90% 30.06 in 10.0 mi East 4.6 mph - N/A   Clear
7:55 AM 51.8 °F - 40.3 °F 65% 30.07 in 10.0 mi East 8.1 mph - N/A   Clear
8:15 AM 53.4 °F - 41.4 °F 64% 30.07 in 10.0 mi East 8.1 mph - N/A   Clear
8:35 AM 54.5 °F - 41.4 °F 61% 30.08 in 10.0 mi East 10.4 mph - N/A   Clear
8:55 AM 55.6 °F - 42.6 °F 62% 30.07 in 10.0 mi East 9.2 mph - N/A   Clear
9:15 AM 56.3 °F - 40.3 °F 55% 30.08 in 10.0 mi East 10.4 mph - N/A   Clear
9:35 AM 57.4 °F - 41.5 °F 56% 30.08 in 10.0 mi East 12.7 mph 17.3 mph N/A   Clear
9:55 AM 58.3 °F - 42.4 °F 56% 30.09 in 10.0 mi East 11.5 mph - N/A   Clear
10:15 AM 58.5 °F - 43.2 °F 57% 30.09 in 10.0 mi East 10.4 mph - N/A   Clear
10:35 AM 58.6 °F - 43.5 °F 57% 30.10 in 10.0 mi East 10.4 mph 17.3 mph N/A   Clear
10:55 AM 59.9 °F - 45.0 °F 58% 30.11 in 10.0 mi ESE 8.1 mph - N/A   Clear
11:15 AM 59.9 °F - 45.0 °F 58% 30.11 in 10.0 mi East 9.2 mph - N/A   Clear
11:35 AM 60.8 °F - 46.6 °F 59% 30.10 in 10.0 mi East 10.4 mph 16.1 mph N/A   Clear
11:55 AM 60.8 °F - 46.4 °F 59% 30.09 in 10.0 mi ESE 6.9 mph 17.3 mph N/A   Clear
12:15 PM 62.6 °F - 48.2 °F 59% 30.08 in 10.0 mi SSE 8.1 mph - N/A   Clear
12:35 PM 62.6 °F - 48.0 °F 59% 30.07 in 10.0 mi ESE 8.1 mph - N/A   Clear
12:55 PM 63.0 °F - 48.2 °F 59% 30.05 in 10.0 mi SE 10.4 mph - N/A   Clear
1:15 PM 62.6 °F - 48.2 °F 59% 30.04 in 10.0 mi SE 9.2 mph - N/A   Scattered Clouds
1:35 PM 63.3 °F - 48.9 °F 59% 30.04 in 10.0 mi SE 5.8 mph - N/A   Mostly Cloudy
1:55 PM 63.0 °F - 49.1 °F 61% 30.02 in 10.0 mi ESE 9.2 mph - N/A   Scattered Clouds
2:15 PM 62.6 °F - 49.1 °F 61% 30.02 in 10.0 mi ESE 6.9 mph - N/A   Mostly Cloudy
2:35 PM 62.6 °F - 49.8 °F 63% 30.02 in 10.0 mi ESE 6.9 mph - N/A   Overcast
2:55 PM 63.3 °F - 50.4 °F 63% 30.01 in 10.0 mi East 10.4 mph - N/A   Overcast
3:15 PM 63.7 °F - 50.9 °F 63% 30.02 in 10.0 mi ESE 5.8 mph - N/A   Overcast
3:35 PM 64.0 °F - 50.7 °F 62% 30.01 in 10.0 mi ENE 8.1 mph - N/A   Mostly Cloudy
3:55 PM 63.0 °F - 51.3 °F 66% 30.01 in 10.0 mi East 9.2 mph - N/A   Mostly Cloudy
4:15 PM 62.6 °F - 52.2 °F 69% 30.01 in 10.0 mi East 5.8 mph - N/A   Overcast
4:35 PM 62.2 °F - 51.4 °F 68% 30.01 in 10.0 mi East 6.9 mph - N/A   Overcast
4:55 PM 62.2 °F - 52.2 °F 70% 30.02 in 10.0 mi East 5.8 mph - N/A   Overcast
5:15 PM 61.9 °F - 52.7 °F 72% 30.02 in 10.0 mi East 4.6 mph - N/A   Overcast
5:35 PM 61.9 °F - 52.9 °F 72% 30.03 in 10.0 mi East 3.5 mph - N/A   Overcast
5:55 PM 61.9 °F - 52.7 °F 72% 30.03 in 10.0 mi East 3.5 mph - N/A   Overcast
6:15 PM 61.9 °F - 53.1 °F 73% 30.04 in 10.0 mi ENE 3.5 mph - N/A   Overcast
6:35 PM 61.7 °F - 52.9 °F 73% 30.03 in 10.0 mi ENE 4.6 mph - N/A   Overcast
6:55 PM 61.0 °F - 52.9 °F 75% 30.04 in 10.0 mi East 4.6 mph - N/A   Overcast
7:15 PM 60.8 °F - 53.6 °F 77% 30.04 in 10.0 mi ENE 3.5 mph - N/A   Overcast
7:35 PM 60.8 °F - 53.6 °F 77% 30.05 in 10.0 mi ENE 4.6 mph - N/A   Overcast
7:55 PM 60.6 °F - 53.2 °F 77% 30.05 in 10.0 mi ENE 5.8 mph - N/A   Overcast
8:15 PM 60.8 °F - 53.2 °F 76% 30.06 in 10.0 mi ENE 5.8 mph - N/A   Overcast
8:35 PM 60.8 °F - 53.8 °F 78% 30.06 in 10.0 mi ENE 5.8 mph - N/A   Overcast
8:55 PM 61.2 °F - 54.1 °F 78% 30.07 in 10.0 mi ENE 4.6 mph - N/A   Overcast
9:15 PM 61.3 °F - 54.3 °F 78% 30.07 in 10.0 mi East 4.6 mph - N/A   Overcast
9:30 PM 61.7 °F - 54.1 °F 76% 30.07 in 10.0 mi ENE 6.9 mph - N/A   Overcast
9:55 PM 61.5 °F - 54.5 °F 78% 30.07 in 10.0 mi East 9.2 mph - N/A   Overcast
10:15 PM 61.2 °F - 55.0 °F 80% 30.06 in 10.0 mi ESE 12.7 mph 19.6 mph N/A   Overcast
10:35 PM 61.3 °F - 55.2 °F 80% 30.06 in 10.0 mi ESE 12.7 mph - N/A   Overcast
10:55 PM 61.7 °F - 55.2 °F 79% 30.07 in 10.0 mi ESE 13.8 mph - N/A   Overcast
11:15 PM 61.9 °F - 55.8 °F 80% 30.07 in 10.0 mi ESE 12.7 mph - N/A   Overcast
11:35 PM 62.1 °F - 56.3 °F 81% 30.06 in 10.0 mi ESE 12.7 mph - N/A   Overcast
11:55 PM 62.6 °F - 56.3 °F 80% 30.06 in 10.0 mi ESE 13.8 mph 19.6 mph N/A   Overcast